»·PEaware :: N5002T KBUR-KSBA

N5002T :: KBUR-KSBA

FLIGHT INFORMATION

Flight Status: Arrived
Operator: Privately registered:
United States
More flights under this callsign
Pilot: Hunter M. (19355)
Aircraft: CESSNA 172 SKYHAWK
(C172)
More flights by this aircraft type
Origin: KBUR Bob Hope-Burbank
United States
Destination: KSBA Santa Barbara Mun
United States
More flights between these airports :: More routes between these airports
Route: VNY3 FIM V186 DEANO V27 KWANG
File this flight plan on PilotEdge
Remarks:
Altitude:
(Current/Filed)
6,000ft
Speed:
(Current/Filed)
118kts
Departed: 06-Jan-19 12:46 PM
Arrived: 06-Jan-19 01:41 PM
Distance/Time
Traveled:
75nm/0:55
Distance/Time
To Go:
Arrived

Flight Plot

Page will automatically refresh every two minutes.

Flight plan parsing failed; only flown route is shown


Map Options




Map Legend


Flown Route
Filed Route
Departure Airport
Arrival Airport
Navaid (VOR, NDB)
Fix

Horizontal Profiles

Position Reports

Time Latitude Longitude Heading Altitude Ground
Speed
06-Jan-19 12:21 34.195962 -118.366900 181 781ft 0kts
06-Jan-19 12:22 34.195961 -118.366900 181 781ft 0kts
06-Jan-19 12:23 34.195960 -118.366900 181 781ft 0kts
06-Jan-19 12:24 34.195960 -118.366900 181 781ft 0kts
06-Jan-19 12:25 34.195959 -118.366900 181 781ft 0kts
06-Jan-19 12:26 34.195958 -118.366900 181 781ft 0kts
06-Jan-19 12:27 34.195957 -118.366900 181 781ft 0kts
06-Jan-19 12:28 34.195956 -118.366900 181 781ft 0kts
06-Jan-19 12:29 34.195955 -118.366900 181 781ft 0kts
06-Jan-19 12:30 34.195955 -118.366900 181 781ft 0kts
06-Jan-19 12:31 34.195954 -118.366901 181 781ft 0kts
06-Jan-19 12:32 34.195953 -118.366901 181 781ft 0kts
06-Jan-19 12:33 34.195952 -118.366901 181 781ft 0kts
06-Jan-19 12:34 34.195951 -118.366901 181 781ft 0kts
06-Jan-19 12:35 34.195950 -118.366901 181 781ft 0kts
06-Jan-19 12:36 34.195949 -118.366901 181 781ft 0kts
06-Jan-19 12:37 34.195948 -118.366901 181 781ft 0kts
06-Jan-19 12:38 34.195948 -118.366901 181 781ft 0kts
06-Jan-19 12:39 34.195947 -118.366901 181 781ft 0kts
06-Jan-19 12:40 34.195946 -118.366901 181 781ft 0kts
06-Jan-19 12:41 34.196433 -118.366179 5 781ft 1kts
06-Jan-19 12:42 34.196734 -118.367127 271 781ft 6kts
06-Jan-19 12:43 34.196947 -118.368952 344 781ft 0kts
06-Jan-19 12:45 34.196948 -118.368952 344 781ft 0kts
06-Jan-19 12:46 34.197896 -118.366839 92 781ft 44kts
06-Jan-19 12:47 34.194718 -118.342530 166 1326ft 86kts
06-Jan-19 12:48 34.178990 -118.364774 224 2102ft 93kts
06-Jan-19 12:49 34.159517 -118.386241 222 2828ft 93kts
06-Jan-19 12:50 34.139714 -118.405367 222 3514ft 89kts
06-Jan-19 12:51 34.142844 -118.428340 298 4214ft 77kts
06-Jan-19 12:52 34.153102 -118.450299 298 4887ft 73kts
06-Jan-19 12:53 34.163583 -118.472368 299 5464ft 79kts
06-Jan-19 12:54 34.174800 -118.495911 299 5968ft 82kts
06-Jan-19 12:55 34.187507 -118.522571 299 5997ft 93kts
06-Jan-19 12:56 34.200146 -118.549253 299 6000ft 90kts
06-Jan-19 12:57 34.212585 -118.575540 300 6000ft 90kts
06-Jan-19 12:58 34.225003 -118.601794 300 6004ft 90kts
06-Jan-19 12:59 34.237435 -118.628099 300 6004ft 90kts
06-Jan-19 13:00 34.249869 -118.654422 300 6006ft 90kts
06-Jan-19 13:01 34.262336 -118.680839 300 6006ft 90kts
06-Jan-19 13:02 34.274757 -118.707178 300 6006ft 90kts
06-Jan-19 13:02 34.285129 -118.729189 300 6006ft 90kts
06-Jan-19 13:03 34.297562 -118.755591 300 6005ft 90kts
06-Jan-19 13:04 34.310001 -118.782023 300 6004ft 90kts
06-Jan-19 13:05 34.322397 -118.808388 300 6004ft 90kts
06-Jan-19 13:07 34.336893 -118.839234 300 5992ft 90kts
06-Jan-19 13:08 34.349467 -118.866015 300 6000ft 94kts
06-Jan-19 13:08 34.356073 -118.891061 268 6003ft 99kts
06-Jan-19 13:09 34.353532 -118.924640 268 6001ft 100kts
06-Jan-19 13:10 34.351076 -118.958441 269 6078ft 106kts
06-Jan-19 13:11 34.348411 -118.993943 268 5972ft 88kts
06-Jan-19 13:12 34.346246 -119.022576 269 6001ft 84kts
06-Jan-19 13:13 34.344132 -119.051126 269 6001ft 85kts
06-Jan-19 13:14 34.341886 -119.082031 269 6008ft 97kts
06-Jan-19 13:15 34.339470 -119.114716 268 6003ft 97kts
06-Jan-19 13:16 34.337037 -119.147325 268 6003ft 97kts
06-Jan-19 13:17 34.334617 -119.179980 266 5464ft 97kts
06-Jan-19 13:18 34.332180 -119.212516 264 4854ft 97kts
06-Jan-19 13:19 34.329703 -119.245382 263 4243ft 98kts
06-Jan-19 13:20 34.327200 -119.278358 263 3999ft 96kts
06-Jan-19 13:21 34.324768 -119.310179 265 4002ft 94kts
06-Jan-19 13:22 34.322360 -119.341546 265 4002ft 93kts
06-Jan-19 13:23 34.319973 -119.372846 265 4003ft 93kts
06-Jan-19 13:24 34.317599 -119.404010 265 4003ft 93kts
06-Jan-19 13:25 34.315180 -119.435291 265 4003ft 93kts
06-Jan-19 13:26 34.312766 -119.466591 266 4003ft 93kts
06-Jan-19 13:27 34.310321 -119.498235 266 4002ft 94kts
06-Jan-19 13:28 34.314745 -119.528478 295 3907ft 95kts
06-Jan-19 13:29 34.326264 -119.558322 296 3415ft 99kts
06-Jan-19 13:30 34.338268 -119.589255 295 2825ft 102kts
06-Jan-19 13:31 34.350108 -119.619878 291 2217ft 100kts
06-Jan-19 13:32 34.361383 -119.649014 290 2087ft 90kts
06-Jan-19 13:33 34.371824 -119.675993 290 2099ft 89kts
06-Jan-19 13:34 34.382464 -119.703532 290 2094ft 90kts
06-Jan-19 13:35 34.392558 -119.730827 288 2112ft 84kts
06-Jan-19 13:36 34.402283 -119.756226 291 1583ft 88kts
06-Jan-19 13:37 34.412902 -119.784462 293 965ft 92kts
06-Jan-19 13:38 34.428726 -119.805506 295 740ft 82kts
06-Jan-19 13:39 34.428055 -119.829047 262 127ft 65kts
06-Jan-19 13:40 34.428312 -119.838044 339 13ft 3kts
06-Jan-19 13:41 34.428474 -119.838108 341 13ft 5kts
06-Jan-19 13:42 34.431209 -119.838479 68 13ft 6kts
06-Jan-19 13:43 34.432173 -119.837513 340 13ft 0kts
06-Jan-19 13:44 34.432174 -119.837513 340 13ft 0kts

Navigation Log

Ident Type
Flight plan parsing failed, navigation log unavailable